Time;durP1;ratioP1;P1;durP2;ratioP2;P2;SDS_P1;SDS_P2;PMS_P1;PMS_P2;Temp;Humidity;BMP_temperature;BMP_pressure;BME280_temperature;BME280_humidity;BME280_pressure;Samples;Min_cycle;Max_cycle;Signal;HPM_P1;HPM_P2
2023/07/21 00:00:29;;;;;;;;;;;;;;;29.50;29.21;97885.94;5093468;28;19919;-87
2023/07/21 00:02:55;;;;;;;;;;;;;;;29.60;28.81;97882.56;5114042;28;19916;-87
2023/07/21 00:05:24;;;;;;;;;;;;;;;29.29;29.45;97882.81;5113648;28;20341;-87
2023/07/21 00:07:50;;;;;;;;;;;;;;;28.96;29.92;97879.06;5112278;28;19924;-87
2023/07/21 00:10:16;;;;;;;;;;;;;;;28.98;30.01;97873.72;5093638;28;19916;-87
2023/07/21 00:12:50;;;;;;;;;;;;;;;29.16;29.42;97873.69;5093547;28;19965;-87
2023/07/21 00:15:17;;;;;;;;;;;;;;;29.27;29.40;97873.22;5076468;28;19958;-87
2023/07/21 00:17:47;;;;;;;;;;;;;;;29.28;29.05;97875.59;5075424;28;20379;-87
2023/07/21 00:20:17;;;;;;;;;;;;;;;29.26;29.73;97875.28;5075368;28;20326;-87
2023/07/21 00:22:43;;;;;;;;;;;;;;;29.28;29.11;97880.47;5093286;28;19922;-88
2023/07/21 00:25:10;;;;;;;;;;;;;;;28.96;29.52;97879.06;5094081;28;20300;-88
2023/07/21 00:27:37;;;;;;;;;;;;;;;28.89;29.55;97882.22;5093556;28;19916;-87
2023/07/21 00:30:07;;;;;;;;;;;;;;;28.96;29.39;97881.91;5093647;28;20017;-87
2023/07/21 00:32:33;;;;;;;;;;;;;;;29.11;29.40;97879.19;5093538;28;19967;-87
2023/07/21 00:35:01;;;;;;;;;;;;;;;29.04;29.78;97877.47;5093271;28;20380;-87
2023/07/21 00:37:27;;;;;;;;;;;;;;;28.94;29.86;97878.75;5092882;28;20384;-87
2023/07/21 00:39:53;;;;;;;;;;;;;;;29.09;29.44;97879.69;5093377;28;19927;-87
2023/07/21 00:42:20;;;;;;;;;;;;;;;28.86;29.46;97874.69;5093881;28;19990;-87
2023/07/21 00:44:46;;;;;;;;;;;;;;;28.82;29.93;97878.91;5093513;28;20014;-87
2023/07/21 00:47:13;;;;;;;;;;;;;;;28.84;30.27;97868.72;5093384;28;19952;-87
2023/07/21 00:49:39;;;;;;;;;;;;;;;28.81;29.79;97869.66;5092355;28;19923;-88
2023/07/21 00:52:08;;;;;;;;;;;;;;;28.69;30.06;97868.56;5093158;28;20368;-87
2023/07/21 00:54:34;;;;;;;;;;;;;;;28.88;29.67;97869.34;5074712;28;20298;-87
2023/07/21 00:57:00;;;;;;;;;;;;;;;28.97;29.27;97866.50;5093183;28;19920;-87
2023/07/21 00:59:26;;;;;;;;;;;;;;;28.86;29.43;97865.41;5095428;28;19922;-88
2023/07/21 01:01:52;;;;;;;;;;;;;;;28.70;30.05;97870.13;5117399;28;19920;-87
2023/07/21 01:04:19;;;;;;;;;;;;;;;28.92;30.28;97869.16;5098630;28;19916;-87
2023/07/21 01:06:45;;;;;;;;;;;;;;;29.17;28.99;97855.47;5099098;28;19961;-88
2023/07/21 01:09:12;;;;;;;;;;;;;;;29.17;28.88;97858.28;5117266;28;19911;-89
2023/07/21 01:11:39;;;;;;;;;;;;;;;29.18;29.25;97853.44;5117120;28;20056;-88
2023/07/21 01:14:06;;;;;;;;;;;;;;;29.26;28.82;97854.72;5117132;28;19916;-87
2023/07/21 01:16:34;;;;;;;;;;;;;;;29.34;28.45;97851.06;5116122;28;19916;-87
2023/07/21 01:19:01;;;;;;;;;;;;;;;29.43;28.18;97853.84;5116825;28;19926;-87
2023/07/21 01:21:32;;;;;;;;;;;;;;;29.17;28.55;97846.22;5116992;28;20355;-88
2023/07/21 01:24:04;;;;;;;;;;;;;;;28.76;28.64;97847.66;5116947;28;20007;-87
2023/07/21 01:26:30;;;;;;;;;;;;;;;28.65;29.04;97850.19;5116951;28;19950;-87
2023/07/21 01:28:57;;;;;;;;;;;;;;;28.62;29.52;97859.59;5116841;28;19923;-87
2023/07/21 01:31:23;;;;;;;;;;;;;;;28.62;29.51;97851.13;5116896;28;19920;-87
2023/07/21 01:33:51;;;;;;;;;;;;;;;28.36;30.08;97847.78;5115705;28;19972;-87
2023/07/21 01:36:17;;;;;;;;;;;;;;;28.08;30.65;97851.03;5116523;28;19930;-87
2023/07/21 01:38:44;;;;;;;;;;;;;;;27.95;31.08;97849.09;5116701;28;19920;-87
2023/07/21 01:41:12;;;;;;;;;;;;;;;27.97;31.12;97855.06;5116530;28;19916;-87
2023/07/21 01:43:38;;;;;;;;;;;;;;;28.20;30.79;97852.91;5116574;28;19916;-88
2023/07/21 01:46:04;;;;;;;;;;;;;;;28.55;29.98;97840.09;5116589;28;19951;-88
2023/07/21 01:48:31;;;;;;;;;;;;;;;28.77;29.67;97854.91;5116264;28;19915;-88
2023/07/21 01:50:57;;;;;;;;;;;;;;;28.95;29.35;97852.06;5115471;28;20014;-88
2023/07/21 01:53:26;;;;;;;;;;;;;;;29.11;28.98;97846.06;5116460;28;20003;-88
2023/07/21 01:55:57;;;;;;;;;;;;;;;29.25;28.41;97834.13;5099648;28;19927;-88
2023/07/21 01:58:24;;;;;;;;;;;;;;;29.18;28.69;97834.44;5096300;28;19927;-88
2023/07/21 02:00:50;;;;;;;;;;;;;;;28.78;29.10;97830.25;5116014;28;20283;-88
2023/07/21 02:03:17;;;;;;;;;;;;;;;28.49;29.67;97837.13;5116103;28;19916;-88
2023/07/21 02:05:43;;;;;;;;;;;;;;;28.57;30.00;97846.06;5116265;28;19954;-88
2023/07/21 02:08:10;;;;;;;;;;;;;;;28.53;29.96;97849.06;5103227;28;19990;-88
2023/07/21 02:10:36;;;;;;;;;;;;;;;28.40;30.30;97853.28;5094969;28;20379;-88
2023/07/21 02:13:04;;;;;;;;;;;;;;;28.46;30.27;97842.94;5095632;28;19962;-88
2023/07/21 02:15:31;;;;;;;;;;;;;;;28.63;30.12;97847.06;5095618;28;19958;-88
2023/07/21 02:17:57;;;;;;;;;;;;;;;28.87;30.15;97845.13;5095510;28;19951;-88
2023/07/21 02:20:23;;;;;;;;;;;;;;;29.23;29.00;97839.47;5095477;28;19916;-88
2023/07/21 02:22:49;;;;;;;;;;;;;;;29.17;28.95;97846.22;5095422;28;20333;-88
2023/07/21 02:25:15;;;;;;;;;;;;;;;29.31;28.29;97839.94;5096093;28;19924;-88
2023/07/21 02:27:41;;;;;;;;;;;;;;;29.06;28.46;97841.03;5095414;28;19916;-88
2023/07/21 02:30:08;;;;;;;;;;;;;;;28.86;28.70;97849.25;5095072;28;20375;-88
2023/07/21 02:32:34;;;;;;;;;;;;;;;28.78;29.10;97852.88;5095475;28;19946;-88
2023/07/21 02:35:00;;;;;;;;;;;;;;;28.82;29.20;97851.44;5095220;28;19939;-88
2023/07/21 02:37:26;;;;;;;;;;;;;;;28.93;29.03;97839.66;5094985;28;19921;-88
2023/07/21 02:39:52;;;;;;;;;;;;;;;29.25;28.19;97836.94;5095160;28;19916;-89
2023/07/21 02:42:18;;;;;;;;;;;;;;;28.83;28.27;97846.56;5095635;28;19923;-88
2023/07/21 02:44:44;;;;;;;;;;;;;;;28.55;28.61;97845.75;5094702;28;19989;-88
2023/07/21 02:47:14;;;;;;;;;;;;;;;28.57;29.08;97857.34;5095037;28;19923;-88
2023/07/21 02:49:40;;;;;;;;;;;;;;;28.46;29.43;97855.00;5094979;28;19916;-89
2023/07/21 02:52:06;;;;;;;;;;;;;;;28.51;29.14;97853.59;5094884;28;19917;-89
2023/07/21 02:54:32;;;;;;;;;;;;;;;28.40;29.47;97851.22;5094683;28;19916;-89
2023/07/21 02:56:58;;;;;;;;;;;;;;;28.64;28.79;97857.09;5094918;28;19916;-89
2023/07/21 02:59:26;;;;;;;;;;;;;;;28.89;28.91;97864.47;5108627;28;19923;-88
2023/07/21 03:01:56;;;;;;;;;;;;;;;29.05;28.81;97866.97;5115099;28;19923;-88
2023/07/21 03:04:24;;;;;;;;;;;;;;;29.14;28.07;97870.56;5114933;28;19916;-88
2023/07/21 03:06:50;;;;;;;;;;;;;;;28.87;28.40;97867.75;5114869;28;19923;-88
2023/07/21 03:09:16;;;;;;;;;;;;;;;28.84;28.09;97867.94;5115038;28;19912;-88
2023/07/21 03:11:42;;;;;;;;;;;;;;;28.85;28.49;97867.44;5114876;28;19960;-88
2023/07/21 03:14:09;;;;;;;;;;;;;;;28.89;28.27;97873.75;5114652;28;19916;-88
2023/07/21 03:16:36;;;;;;;;;;;;;;;28.88;28.53;97872.16;5113818;28;19927;-88
2023/07/21 03:19:02;;;;;;;;;;;;;;;28.65;29.48;97878.44;5114674;28;19916;-88
2023/07/21 03:21:28;;;;;;;;;;;;;;;28.88;28.88;97865.72;5114726;28;20368;-88
2023/07/21 03:23:55;;;;;;;;;;;;;;;28.75;29.29;97865.91;5114640;28;19969;-88
2023/07/21 03:26:22;;;;;;;;;;;;;;;28.90;28.89;97869.66;5114608;28;20391;-88
2023/07/21 03:28:48;;;;;;;;;;;;;;;29.08;28.62;97874.50;5114401;28;19922;-88
2023/07/21 03:31:14;;;;;;;;;;;;;;;29.18;28.88;97862.72;5114580;28;19961;-88
2023/07/21 03:33:40;;;;;;;;;;;;;;;29.30;28.73;97870.25;5097175;28;19920;-88
2023/07/21 03:36:06;;;;;;;;;;;;;;;29.51;28.46;97867.66;5094035;28;19930;-87
2023/07/21 03:38:33;;;;;;;;;;;;;;;29.65;28.51;97869.81;5094213;28;20356;-88
2023/07/21 03:41:03;;;;;;;;;;;;;;;29.64;28.45;97877.53;5093937;28;19923;-88
2023/07/21 03:43:29;;;;;;;;;;;;;;;29.69;28.39;97870.44;5093915;28;19976;-88
2023/07/21 03:45:59;;;;;;;;;;;;;;;29.67;28.63;97875.78;5094076;28;19969;-88
2023/07/21 03:48:25;;;;;;;;;;;;;;;29.47;29.17;97873.50;5093939;28;20402;-88
2023/07/21 03:51:10;;;;;;;;;;;;;;;29.69;29.31;97876.88;5094470;28;19962;-88
2023/07/21 03:53:36;;;;;;;;;;;;;;;29.91;28.71;97873.84;5093773;28;19938;-88
2023/07/21 03:56:02;;;;;;;;;;;;;;;29.70;28.75;97878.47;5093776;28;20296;-88
2023/07/21 03:58:28;;;;;;;;;;;;;;;29.36;29.38;97873.19;5100836;28;19923;-88
2023/07/21 04:00:55;;;;;;;;;;;;;;;29.22;29.98;97871.06;5114283;28;19923;-88
2023/07/21 04:03:24;;;;;;;;;;;;;;;29.21;29.81;97872.31;5114253;28;20006;-88
2023/07/21 04:05:51;;;;;;;;;;;;;;;29.13;30.09;97862.53;5112381;28;19924;-88
2023/07/21 04:08:18;;;;;;;;;;;;;;;29.22;30.29;97860.50;5093576;28;20439;-88
2023/07/21 04:10:44;;;;;;;;;;;;;;;29.27;30.43;97853.44;5093665;28;19919;-89
2023/07/21 04:13:10;;;;;;;;;;;;;;;29.42;30.32;97863.63;5093454;28;19951;-88
2023/07/21 04:15:36;;;;;;;;;;;;;;;29.67;29.93;97861.63;5093611;28;19962;-88
2023/07/21 04:18:03;;;;;;;;;;;;;;;29.53;30.42;97867.97;5093650;28;19967;-88
2023/07/21 04:20:29;;;;;;;;;;;;;;;29.24;31.39;97863.66;5093601;28;19956;-88
2023/07/21 04:22:55;;;;;;;;;;;;;;;29.08;31.47;97871.69;5093997;28;19923;-88
2023/07/21 04:25:21;;;;;;;;;;;;;;;29.05;31.74;97864.94;5093626;28;19916;-88
2023/07/21 04:27:50;;;;;;;;;;;;;;;29.06;31.78;97858.00;5093383;28;19916;-88
2023/07/21 04:30:16;;;;;;;;;;;;;;;29.21;31.78;97849.69;5093668;28;19952;-88
2023/07/21 04:32:42;;;;;;;;;;;;;;;29.27;31.81;97853.44;5097100;28;20890;-88
2023/07/21 04:35:09;;;;;;;;;;;;;;;29.35;32.03;97843.38;5105348;28;20023;-88
2023/07/21 04:37:35;;;;;;;;;;;;;;;29.32;31.70;97839.44;5116153;28;19920;-88
2023/07/21 04:40:02;;;;;;;;;;;;;;;29.42;31.37;97841.00;5098664;28;19916;-88
2023/07/21 04:42:28;;;;;;;;;;;;;;;29.25;31.77;97841.81;5117641;28;19938;-88
2023/07/21 04:44:54;;;;;;;;;;;;;;;29.53;31.89;97851.78;5117726;28;20511;-88
2023/07/21 04:47:22;;;;;;;;;;;;;;;30.10;31.31;97852.66;5117868;28;19970;-88
2023/07/21 04:49:48;;;;;;;;;;;;;;;30.59;30.61;97852.22;5117902;28;19918;-88
2023/07/21 04:52:14;;;;;;;;;;;;;;;30.57;29.98;97852.69;5100862;28;20002;-87
2023/07/21 04:54:40;;;;;;;;;;;;;;;30.09;30.92;97851.88;5097349;28;19916;-87
2023/07/21 04:57:06;;;;;;;;;;;;;;;30.20;30.88;97848.50;5100472;28;19918;-88
2023/07/21 04:59:32;;;;;;;;;;;;;;;30.17;31.43;97843.81;5117404;28;19969;-88
2023/07/21 05:01:58;;;;;;;;;;;;;;;30.02;31.38;97849.41;5117802;28;19911;-88
2023/07/21 05:04:24;;;;;;;;;;;;;;;30.06;32.15;97847.16;5117282;28;19915;-88
2023/07/21 05:06:50;;;;;;;;;;;;;;;30.22;31.66;97840.34;5117741;28;19930;-88
2023/07/21 05:09:17;;;;;;;;;;;;;;;30.55;31.59;97837.44;5117409;28;19915;-88
2023/07/21 05:11:43;;;;;;;;;;;;;;;30.60;31.87;97856.59;5116983;28;19941;-88
2023/07/21 05:14:09;;;;;;;;;;;;;;;30.99;30.71;97852.53;5116370;28;19916;-88
2023/07/21 05:16:36;;;;;;;;;;;;;;;30.98;31.07;97844.50;5098842;28;19920;-88
2023/07/21 05:19:03;;;;;;;;;;;;;;;30.94;31.58;97855.25;5117125;28;19917;-88
2023/07/21 05:21:29;;;;;;;;;;;;;;;31.06;31.92;97857.03;5117143;28;19916;-88
2023/07/21 05:23:55;;;;;;;;;;;;;;;31.18;32.11;97859.56;5116690;28;19915;-88
2023/07/21 05:26:21;;;;;;;;;;;;;;;31.29;31.42;97859.00;5116911;28;19916;-89
2023/07/21 05:28:49;;;;;;;;;;;;;;;31.33;30.89;97862.41;5116927;28;19961;-89
2023/07/21 05:31:16;;;;;;;;;;;;;;;31.43;31.08;97861.09;5116153;28;19916;-88
2023/07/21 05:33:42;;;;;;;;;;;;;;;31.65;30.33;97855.78;5098576;28;19949;-88
2023/07/21 05:36:10;;;;;;;;;;;;;;;31.47;30.77;97861.66;5098370;28;19931;-88
2023/07/21 05:38:37;;;;;;;;;;;;;;;31.50;30.71;97857.84;5116421;28;20379;-88
2023/07/21 05:41:04;;;;;;;;;;;;;;;31.57;30.72;97860.31;5116688;28;19919;-88
2023/07/21 05:43:30;;;;;;;;;;;;;;;31.79;29.93;97859.84;5116621;28;19916;-88
2023/07/21 05:45:56;;;;;;;;;;;;;;;31.61;31.04;97869.38;5115367;28;19939;-88
2023/07/21 05:48:24;;;;;;;;;;;;;;;31.69;29.28;97870.56;5110451;28;19947;-88
2023/07/21 05:50:51;;;;;;;;;;;;;;;32.10;32.11;97880.00;5095973;28;20261;-88
2023/07/21 05:53:17;;;;;;;;;;;;;;;32.55;30.46;97868.03;5096056;28;19923;-88
2023/07/21 05:55:43;;;;;;;;;;;;;;;32.21;29.98;97876.56;5096024;28;19943;-88
2023/07/21 05:58:09;;;;;;;;;;;;;;;32.30;30.16;97876.44;5109071;28;19915;-88
2023/07/21 06:00:39;;;;;;;;;;;;;;;32.59;30.50;97876.31;5116239;28;19916;-88
2023/07/21 06:03:06;;;;;;;;;;;;;;;33.10;30.06;97875.66;5116308;28;20000;-88
2023/07/21 06:05:32;;;;;;;;;;;;;;;33.27;29.89;97871.72;5115376;28;20345;-89
2023/07/21 06:07:58;;;;;;;;;;;;;;;33.36;30.23;97868.69;5115924;28;19915;-89
2023/07/21 06:10:24;;;;;;;;;;;;;;;32.82;31.84;97866.78;5116195;28;19956;-89
2023/07/21 06:12:50;;;;;;;;;;;;;;;32.57;31.38;97861.81;5116208;28;19920;-89
2023/07/21 06:15:16;;;;;;;;;;;;;;;32.82;32.29;97868.84;5116109;28;19968;-90
2023/07/21 06:17:42;;;;;;;;;;;;;;;33.40;29.01;97877.78;5116237;28;19916;-89
2023/07/21 06:20:12;;;;;;;;;;;;;;;33.35;30.89;97880.59;5115969;28;19966;-90
2023/07/21 06:22:38;;;;;;;;;;;;;;;33.69;30.17;97873.16;5115122;28;20278;-90
2023/07/21 06:25:04;;;;;;;;;;;;;;;33.54;30.54;97872.53;5115734;28;19927;-90
2023/07/21 06:27:30;;;;;;;;;;;;;;;33.37;29.61;97864.56;5115711;28;19919;-89
2023/07/21 06:29:56;;;;;;;;;;;;;;;33.27;29.83;97871.72;5115987;28;19969;-90
2023/07/21 06:32:25;;;;;;;;;;;;;;;33.03;30.55;97864.72;5115873;28;19968;-89
2023/07/21 06:34:52;;;;;;;;;;;;;;;32.96;31.05;97865.13;5115727;28;19919;-90
2023/07/21 06:37:18;;;;;;;;;;;;;;;33.19;30.47;97861.25;5115238;28;19934;-90
2023/07/21 06:39:48;;;;;;;;;;;;;;;33.38;31.52;97871.81;5104051;28;20370;-90
2023/07/21 06:42:14;;;;;;;;;;;;;;;34.22;28.39;97859.06;5115780;28;19962;-90
2023/07/21 06:44:40;;;;;;;;;;;;;;;33.91;28.99;97864.81;5115387;28;20343;-90
2023/07/21 06:47:07;;;;;;;;;;;;;;;33.69;28.96;97873.16;5115392;28;19955;-90
2023/07/21 06:49:33;;;;;;;;;;;;;;;33.78;29.47;97881.50;5115380;28;19915;-90
2023/07/21 06:51:59;;;;;;;;;;;;;;;34.00;29.52;97876.00;5115026;28;20363;-90
2023/07/21 06:54:29;;;;;;;;;;;;;;;34.45;29.18;97877.09;5115226;28;19916;-90
2023/07/21 06:56:55;;;;;;;;;;;;;;;34.77;29.33;97880.63;5114241;28;20375;-90
2023/07/21 06:59:21;;;;;;;;;;;;;;;35.10;28.67;97880.78;5115097;28;20060;-90
2023/07/21 07:01:47;;;;;;;;;;;;;;;35.36;27.71;97881.34;5096856;28;20422;-90
2023/07/21 07:04:13;;;;;;;;;;;;;;;35.43;29.46;97878.78;5114955;28;20081;-91
2023/07/21 07:06:39;;;;;;;;;;;;;;;35.54;29.51;97880.91;5115167;28;19919;-91
2023/07/21 07:09:05;;;;;;;;;;;;;;;35.73;27.17;97884.03;5114976;28;19941;-90
2023/07/21 07:11:31;;;;;;;;;;;;;;;35.77;25.80;97881.69;5114910;28;19916;-88
2023/07/21 07:13:57;;;;;;;;;;;;;;;35.18;25.31;97876.13;5114077;28;20002;-88
2023/07/21 07:16:23;;;;;;;;;;;;;;;34.95;26.48;97880.19;5114762;28;20012;-87
2023/07/21 07:18:49;;;;;;;;;;;;;;;35.04;27.24;97879.97;5114744;28;19992;-89
2023/07/21 07:21:15;;;;;;;;;;;;;;;35.42;26.13;97876.44;5114599;28;19949;-87
2023/07/21 07:23:41;;;;;;;;;;;;;;;34.85;26.81;97867.44;5114614;28;19916;-89
2023/07/21 07:26:07;;;;;;;;;;;;;;;34.98;26.85;97867.75;5114763;28;19916;-87
2023/07/21 07:28:34;;;;;;;;;;;;;;;35.04;26.52;97865.72;5114624;28;19916;-90
2023/07/21 07:31:04;;;;;;;;;;;;;;;34.97;25.27;97861.25;5102797;28;19928;-89
2023/07/21 07:33:31;;;;;;;;;;;;;;;35.15;25.99;97863.66;5094453;28;19919;-87
2023/07/21 07:35:57;;;;;;;;;;;;;;;34.78;24.72;97859.34;5093744;28;19947;-87
2023/07/21 07:38:24;;;;;;;;;;;;;;;34.50;30.79;97865.72;5103400;28;20395;-88
2023/07/21 07:40:50;;;;;;;;;;;;;;;34.85;24.81;97868.22;5096139;28;19912;-86
2023/07/21 07:43:17;;;;;;;;;;;;;;;35.01;25.25;97873.19;5114244;28;19916;-86
2023/07/21 07:45:43;;;;;;;;;;;;;;;34.96;25.23;97881.75;5114611;28;20342;-87
2023/07/21 07:48:09;;;;;;;;;;;;;;;34.11;31.38;97870.41;5095245;28;19920;-86
2023/07/21 07:50:39;;;;;;;;;;;;;;;34.63;24.50;97879.56;5113829;28;19915;-86
2023/07/21 07:53:06;;;;;;;;;;;;;;;34.91;24.60;97880.44;5114491;28;20282;-86
2023/07/21 07:55:38;;;;;;;;;;;;;;;35.07;26.78;97878.97;5114183;28;20379;-86
2023/07/21 07:58:06;;;;;;;;;;;;;;;35.12;25.79;97883.91;5114108;28;20387;-87
2023/07/21 08:00:33;;;;;;;;;;;;;;;35.12;25.88;97876.13;5114187;28;19915;-86
2023/07/21 08:02:59;;;;;;;;;;;;;;;35.50;24.85;97871.00;5114230;28;19916;-86
2023/07/21 08:05:25;;;;;;;;;;;;;;;35.64;26.03;97872.88;5112716;28;19924;-87
2023/07/21 08:07:51;;;;;;;;;;;;;;;34.72;28.02;97882.19;5114207;28;20366;-89
2023/07/21 08:10:17;;;;;;;;;;;;;;;34.43;27.62;97876.81;5113473;28;19915;-89
2023/07/21 08:12:43;;;;;;;;;;;;;;;33.15;32.10;97874.94;5114587;28;20010;-89
2023/07/21 08:15:09;;;;;;;;;;;;;;;33.78;30.07;97879.47;5114047;28;19916;-87
2023/07/21 08:17:37;;;;;;;;;;;;;;;34.43;28.87;97871.88;5114074;28;19916;-88
2023/07/21 08:20:03;;;;;;;;;;;;;;;34.86;28.16;97869.00;5113671;28;19951;-88
2023/07/21 08:22:29;;;;;;;;;;;;;;;34.99;26.18;97858.66;5113211;28;19916;-88
2023/07/21 08:24:55;;;;;;;;;;;;;;;34.41;25.47;97867.97;5113834;28;20022;-88
2023/07/21 08:27:21;;;;;;;;;;;;;;;34.99;28.81;97855.03;5113905;28;19938;-88
2023/07/21 08:29:48;;;;;;;;;;;;;;;34.57;27.26;97865.25;5113733;28;19916;-88
2023/07/21 08:32:14;;;;;;;;;;;;;;;34.97;28.11;97860.47;5114111;28;19980;-88
2023/07/21 08:34:40;;;;;;;;;;;;;;;35.28;26.84;97854.63;5113468;28;19915;-88
2023/07/21 08:37:06;;;;;;;;;;;;;;;35.29;25.92;97859.00;5113654;28;19919;-88
2023/07/21 08:39:32;;;;;;;;;;;;;;;35.99;25.54;97851.03;5097930;28;20272;-88
2023/07/21 08:41:59;;;;;;;;;;;;;;;36.41;24.43;97847.03;5093436;28;19916;-88
2023/07/21 08:44:25;;;;;;;;;;;;;;;36.79;25.61;97851.09;5093293;28;19916;-88
2023/07/21 08:46:51;;;;;;;;;;;;;;;36.93;25.23;97852.09;5093295;28;19920;-88
2023/07/21 08:49:18;;;;;;;;;;;;;;;36.57;25.10;97849.09;5093412;28;19985;-87
2023/07/21 08:51:44;;;;;;;;;;;;;;;36.34;25.14;97847.59;5105282;28;19920;-88
2023/07/21 08:54:10;;;;;;;;;;;;;;;36.67;27.13;97863.88;5113837;28;19950;-88
2023/07/21 08:56:36;;;;;;;;;;;;;;;36.97;25.42;97855.47;5112690;28;19942;-88
2023/07/21 08:59:02;;;;;;;;;;;;;;;37.12;26.88;97859.53;5113620;28;19916;-88
2023/07/21 09:01:28;;;;;;;;;;;;;;;36.86;24.40;97853.41;5113319;28;19962;-88
2023/07/21 09:03:54;;;;;;;;;;;;;;;36.46;23.86;97851.22;5113452;28;20345;-89
2023/07/21 09:06:20;;;;;;;;;;;;;;;35.84;24.01;97847.66;5113447;28;19959;-90
2023/07/21 09:08:47;;;;;;;;;;;;;;;35.93;25.44;97855.19;5113686;28;19920;-88
2023/07/21 09:11:14;;;;;;;;;;;;;;;36.08;30.06;97858.59;5113395;28;19920;-91
2023/07/21 09:13:49;;;;;;;;;;;;;;;35.20;27.34;97859.25;5112690;28;19976;-90
2023/07/21 09:16:15;;;;;;;;;;;;;;;35.12;24.94;97859.00;5113265;28;19952;-89
2023/07/21 09:18:42;;;;;;;;;;;;;;;35.51;26.38;97853.38;5113300;28;20026;-89
2023/07/21 09:21:22;;;;;;;;;;;;;;;36.35;25.07;97859.81;5115625;28;19976;-89
2023/07/21 09:23:48;;;;;;;;;;;;;;;36.99;23.88;97853.66;5113307;27;19919;-90
2023/07/21 09:26:21;;;;;;;;;;;;;;;37.57;25.99;97860.06;5108496;28;20384;-89
2023/07/21 09:28:47;;;;;;;;;;;;;;;37.91;26.29;97858.47;5113715;28;20291;-89
2023/07/21 09:31:13;;;;;;;;;;;;;;;37.40;25.34;97853.66;5103909;28;20074;-89
2023/07/21 09:33:42;;;;;;;;;;;;;;;37.67;25.74;97852.66;5099790;28;20422;-90
2023/07/21 09:36:09;;;;;;;;;;;;;;;38.21;25.49;97849.84;5116657;28;19992;-90
2023/07/21 09:38:36;;;;;;;;;;;;;;;37.71;23.88;97840.91;5117026;28;19950;-90
2023/07/21 09:41:03;;;;;;;;;;;;;;;37.24;23.52;97855.31;5116708;28;19915;-90
2023/07/21 09:43:30;;;;;;;;;;;;;;;37.29;24.33;97848.00;5116510;28;20295;-90
2023/07/21 09:46:00;;;;;;;;;;;;;;;37.19;25.93;97850.38;5115525;28;19951;-90
2023/07/21 09:48:27;;;;;;;;;;;;;;;36.30;30.47;97837.72;5116725;28;19920;-91
2023/07/21 09:50:56;;;;;;;;;;;;;;;36.22;26.66;97831.00;5116556;28;20057;-90
2023/07/21 09:53:25;;;;;;;;;;;;;;;36.13;25.03;97837.75;5116398;28;19916;-90
2023/07/21 09:55:51;;;;;;;;;;;;;;;36.07;26.32;97831.28;5116398;28;19916;-90
2023/07/21 09:58:19;;;;;;;;;;;;;;;36.41;26.04;97832.75;5116346;28;19932;-91
2023/07/21 10:00:46;;;;;;;;;;;;;;;36.72;26.32;97838.13;5116060;28;19916;-90
2023/07/21 10:03:13;;;;;;;;;;;;;;;36.88;23.60;97844.28;5115367;28;19978;-90
2023/07/21 10:05:39;;;;;;;;;;;;;;;37.15;25.62;97847.03;5116102;28;20451;-90
2023/07/21 10:08:05;;;;;;;;;;;;;;;37.22;25.50;97848.56;5116256;28;19924;-90
2023/07/21 10:10:32;;;;;;;;;;;;;;;36.85;25.40;97833.91;5116145;28;20313;-90
2023/07/21 10:13:03;;;;;;;;;;;;;;;36.80;28.88;97843.28;5116166;28;20376;-91
2023/07/21 10:15:31;;;;;;;;;;;;;;;36.78;26.38;97848.78;5115858;28;19923;-90
2023/07/21 10:17:57;;;;;;;;;;;;;;;36.02;26.60;97850.00;5114717;28;20325;-91
2023/07/21 10:20:44;;;;;;;;;;;;;;;35.71;30.07;97843.78;5096162;28;20272;-91
2023/07/21 10:23:11;;;;;;;;;;;;;;;36.33;26.40;97831.75;5081595;28;19916;-92
2023/07/21 10:25:58;;;;;;;;;;;;;;;36.80;25.84;97843.28;5095513;28;20014;-91
2023/07/21 10:28:44;;;;;;;;;;;;;;;36.79;24.31;97844.59;5103423;28;19916;-90
2023/07/21 10:31:26;;;;;;;;;;;;;;;37.18;25.41;97840.22;5095038;28;19921;-90
2023/07/21 10:34:04;;;;;;;;;;;;;;;36.61;26.72;97837.38;5076907;28;19920;-91
2023/07/21 10:36:48;;;;;;;;;;;;;;;35.43;33.85;97838.00;5095022;28;19931;-91
2023/07/21 10:39:19;;;;;;;;;;;;;;;35.64;27.52;97833.63;5095135;28;19916;-90
2023/07/21 10:41:50;;;;;;;;;;;;;;;36.39;26.84;97826.78;5095568;28;19916;-90
2023/07/21 10:44:16;;;;;;;;;;;;;;;36.52;25.58;97829.09;5076815;28;20445;-90
2023/07/21 10:46:44;;;;;;;;;;;;;;;36.56;25.16;97827.53;5095040;28;20358;-90
2023/07/21 10:49:10;;;;;;;;;;;;;;;36.50;25.75;97831.72;5094913;28;19916;-90
2023/07/21 10:51:42;;;;;;;;;;;;;;;36.60;25.22;97830.09;5094147;28;21377;-90
2023/07/21 10:54:08;;;;;;;;;;;;;;;36.96;24.65;97828.16;5095476;28;19956;-90
2023/07/21 10:56:35;;;;;;;;;;;;;;;36.96;23.46;97831.00;5095018;28;20295;-90
2023/07/21 10:59:02;;;;;;;;;;;;;;;37.05;24.65;97828.59;5094594;28;19916;-90
2023/07/21 11:01:28;;;;;;;;;;;;;;;35.71;31.68;97835.97;5094596;28;19932;-91
2023/07/21 11:03:54;;;;;;;;;;;;;;;36.04;24.64;97820.88;5094751;28;19920;-90
2023/07/21 11:06:22;;;;;;;;;;;;;;;36.55;25.94;97825.19;5094578;28;19926;-90
2023/07/21 11:08:49;;;;;;;;;;;;;;;36.76;24.29;97817.03;5094791;28;19980;-90
2023/07/21 11:11:15;;;;;;;;;;;;;;;36.89;25.22;97823.72;5095170;28;20023;-90
2023/07/21 11:13:41;;;;;;;;;;;;;;;37.07;24.88;97833.78;5094387;28;19939;-90
2023/07/21 11:16:09;;;;;;;;;;;;;;;37.05;23.90;97833.56;5094494;28;19923;-90
2023/07/21 11:18:35;;;;;;;;;;;;;;;36.93;26.53;97827.13;5094248;28;19923;-89
2023/07/21 11:21:01;;;;;;;;;;;;;;;36.78;25.40;97812.34;5094479;28;20404;-90
2023/07/21 11:23:27;;;;;;;;;;;;;;;36.73;25.12;97813.16;5094420;28;19916;-90
2023/07/21 11:26:09;;;;;;;;;;;;;;;36.64;23.53;97810.59;5094344;28;19936;-90
2023/07/21 11:28:38;;;;;;;;;;;;;;;37.06;25.12;97815.06;5103178;28;19922;-90
2023/07/21 11:31:13;;;;;;;;;;;;;;;36.99;25.33;97825.00;5114659;28;19919;-90
2023/07/21 11:33:43;;;;;;;;;;;;;;;36.20;25.42;97807.88;5114735;28;19915;-91
2023/07/21 11:36:17;;;;;;;;;;;;;;;36.36;24.26;97798.47;5114334;28;19947;-90
2023/07/21 11:38:56;;;;;;;;;;;;;;;36.53;26.45;97799.19;5096263;28;20014;-89
2023/07/21 11:41:54;;;;;;;;;;;;;;;36.60;24.94;97799.41;5114142;28;19915;-90
2023/07/21 11:44:20;;;;;;;;;;;;;;;36.57;24.28;97805.44;5057448;28;19923;-91
2023/07/21 11:47:05;;;;;;;;;;;;;;;36.54;23.18;97800.75;5113512;28;19916;-91
2023/07/21 11:49:32;;;;;;;;;;;;;;;36.27;25.63;97796.66;5114236;28;19916;-90
2023/07/21 11:51:59;;;;;;;;;;;;;;;36.32;26.13;97797.94;5114378;28;20011;-90
2023/07/21 11:54:26;;;;;;;;;;;;;;;36.27;27.42;97782.34;5114504;28;20007;-90
2023/07/21 11:56:53;;;;;;;;;;;;;;;36.20;26.96;97788.63;5113971;28;19951;-90
2023/07/21 11:59:19;;;;;;;;;;;;;;;36.33;27.01;97776.63;5114323;28;19922;-91
2023/07/21 12:01:46;;;;;;;;;;;;;;;36.18;26.61;97779.00;5113260;28;19920;-91
2023/07/21 12:04:12;;;;;;;;;;;;;;;36.16;26.81;97773.03;5114012;28;19923;-90
2023/07/21 12:06:38;;;;;;;;;;;;;;;35.74;27.56;97774.16;5114084;28;20006;-91
2023/07/21 12:09:07;;;;;;;;;;;;;;;35.74;25.93;97771.28;5114105;28;19966;-90
2023/07/21 12:11:34;;;;;;;;;;;;;;;35.85;26.43;97769.19;5113859;28;20367;-90
2023/07/21 12:14:00;;;;;;;;;;;;;;;36.12;27.81;97775.41;5114069;28;20347;-91
2023/07/21 12:16:26;;;;;;;;;;;;;;;36.07;25.78;97774.09;5105602;28;19916;-90
2023/07/21 12:18:53;;;;;;;;;;;;;;;35.89;27.23;97780.38;5094196;28;19947;-90
2023/07/21 12:21:19;;;;;;;;;;;;;;;35.89;26.46;97772.56;5093675;28;19919;-90
2023/07/21 12:23:45;;;;;;;;;;;;;;;35.89;25.74;97774.66;5093511;28;19969;-90
2023/07/21 12:26:11;;;;;;;;;;;;;;;35.99;25.13;97775.94;5093423;28;20375;-89
2023/07/21 12:28:37;;;;;;;;;;;;;;;36.01;25.41;97776.22;5103815;28;19923;-90
2023/07/21 12:31:04;;;;;;;;;;;;;;;36.23;26.81;97784.72;5114067;28;20023;-90
2023/07/21 12:33:30;;;;;;;;;;;;;;;36.56;26.40;97783.84;5113996;28;19916;-90
2023/07/21 12:35:56;;;;;;;;;;;;;;;36.84;25.23;97780.81;5111151;28;19924;-90
2023/07/21 12:38:22;;;;;;;;;;;;;;;36.71;26.06;97779.31;5093446;28;20287;-90
2023/07/21 12:40:48;;;;;;;;;;;;;;;36.85;26.35;97793.84;5110428;28;19923;-90
2023/07/21 12:43:14;;;;;;;;;;;;;;;37.03;27.55;97801.81;5095644;28;19923;-90
2023/07/21 12:45:40;;;;;;;;;;;;;;;37.19;26.96;97789.47;5113771;28;20010;-90
2023/07/21 12:48:07;;;;;;;;;;;;;;;37.15;26.71;97797.56;5113755;28;19915;-90